Time;durP1;ratioP1;P1;durP2;ratioP2;P2;SDS_P1;SDS_P2;PMS_P1;PMS_P2;Temp;Humidity;BMP_temperature;BMP_pressure;BME280_temperature;BME280_humidity;BME280_pressure;Samples;Min_cycle;Max_cycle;Signal;HPM_P1;HPM_P2
2021/12/01 00:00:08;;;;;;;0.10;0.10;;;7.80;99.90;;;;;;5052333;28;20271;-84
2021/12/01 00:02:34;;;;;;;0.10;0.10;;;7.80;99.90;;;;;;5031293;28;20272;-84
2021/12/01 00:04:59;;;;;;;0.27;0.27;;;7.70;99.90;;;;;;5031147;28;20686;-84
2021/12/01 00:07:25;;;;;;;0.10;0.10;;;7.70;99.90;;;;;;5026384;28;20200;-84
2021/12/01 00:09:51;;;;;;;0.10;0.10;;;7.70;99.90;;;;;;5035104;28;20675;-84
2021/12/01 00:12:17;;;;;;;0.10;0.10;;;7.70;99.90;;;;;;5030044;28;20189;-85
2021/12/01 00:14:43;;;;;;;0.10;0.10;;;7.70;99.90;;;;;;5037690;28;20179;-85
2021/12/01 00:17:11;;;;;;;0.10;0.10;;;7.70;99.90;;;;;;5030203;28;20177;-84
2021/12/01 00:19:37;;;;;;;0.10;0.10;;;7.60;99.90;;;;;;5032319;28;20198;-84
2021/12/01 00:22:03;;;;;;;0.10;0.10;;;7.60;99.90;;;;;;5029847;28;20179;-85
2021/12/01 00:24:28;;;;;;;0.10;0.10;;;7.60;99.90;;;;;;5027672;28;20628;-84
2021/12/01 00:26:55;;;;;;;0.10;0.10;;;7.60;99.90;;;;;;5036056;28;20550;-84
2021/12/01 00:29:21;;;;;;;0.23;0.23;;;7.50;99.90;;;;;;5054590;28;20738;-85
2021/12/01 00:31:46;;;;;;;0.10;0.10;;;7.60;99.90;;;;;;5034407;28;20209;-84
2021/12/01 00:34:12;;;;;;;0.10;0.10;;;7.60;99.90;;;;;;5035340;28;20654;-85
2021/12/01 00:36:38;;;;;;;0.10;0.10;;;7.60;99.90;;;;;;5035842;28;20177;-84
2021/12/01 00:39:04;;;;;;;0.10;0.10;;;7.50;99.90;;;;;;5046136;28;20203;-84
2021/12/01 00:41:30;;;;;;;0.00;0.00;;;7.60;99.90;;;;;;5035051;28;20276;-84
2021/12/01 00:43:55;;;;;;;0.10;0.10;;;7.60;99.90;;;;;;5035170;28;20288;-84
2021/12/01 00:46:24;;;;;;;0.20;0.20;;;7.50;99.90;;;;;;5036557;28;20182;-85
2021/12/01 00:48:50;;;;;;;0.10;0.10;;;7.50;99.90;;;;;;5054265;28;20209;-84
2021/12/01 00:51:16;;;;;;;0.30;0.30;;;7.50;99.90;;;;;;5056865;28;20186;-84
2021/12/01 00:53:45;;;;;;;0.07;0.07;;;7.50;99.90;;;;;;5035060;28;20198;-84
2021/12/01 00:56:10;;;;;;;0.10;0.10;;;7.60;99.90;;;;;;5045719;28;20193;-84
2021/12/01 00:58:36;;;;;;;0.37;0.37;;;7.60;99.90;;;;;;5034764;28;20684;-84
2021/12/01 01:01:03;;;;;;;0.10;0.10;;;7.60;99.90;;;;;;5029310;28;20203;-85
2021/12/01 01:03:30;;;;;;;0.40;0.40;;;7.60;99.90;;;;;;5030818;28;20653;-85
2021/12/01 01:05:56;;;;;;;0.20;0.20;;;7.50;99.90;;;;;;5025162;28;20185;-85
2021/12/01 01:08:24;;;;;;;0.10;0.10;;;7.50;99.90;;;;;;5026982;28;20216;-84
2021/12/01 01:16:24;;;;;;;0.10;0.10;;;7.50;99.90;;;;;;5043484;28;20252;-84
2021/12/01 01:19:03;;;;;;;0.10;0.10;;;7.50;99.90;;;;;;5021301;28;20198;-84
2021/12/01 01:21:33;;;;;;;0.27;0.20;;;7.50;99.90;;;;;;5016251;28;20272;-83
2021/12/01 01:23:59;;;;;;;0.10;0.10;;;7.50;99.90;;;;;;5030210;28;20593;-84
2021/12/01 01:26:26;;;;;;;0.40;0.40;;;7.50;99.90;;;;;;5035340;28;20177;-84
2021/12/01 01:28:52;;;;;;;0.10;0.10;;;7.60;99.90;;;;;;5053504;28;20576;-85
2021/12/01 01:31:21;;;;;;;0.10;0.10;;;7.60;99.90;;;;;;5035458;28;20177;-84
2021/12/01 01:33:49;;;;;;;0.10;0.10;;;7.50;99.90;;;;;;5027525;28;20178;-85
2021/12/01 01:36:14;;;;;;;0.57;0.33;;;7.60;99.90;;;;;;5048862;28;20189;-84
2021/12/01 01:38:40;;;;;;;0.20;0.20;;;7.50;99.90;;;;;;5041037;28;20202;-84
2021/12/01 01:41:08;;;;;;;0.10;0.10;;;7.50;99.90;;;;;;5024585;28;20194;-85
2021/12/01 01:43:35;;;;;;;0.10;0.10;;;7.50;99.90;;;;;;5035080;28;20614;-85
2021/12/01 01:46:01;;;;;;;0.20;0.20;;;7.50;99.90;;;;;;5031331;28;20268;-85
2021/12/01 01:48:33;;;;;;;0.10;0.10;;;7.50;99.90;;;;;;5031550;28;20358;-84
2021/12/01 01:51:05;;;;;;;0.10;0.10;;;7.50;99.90;;;;;;5026128;28;20574;-84
2021/12/01 01:53:33;;;;;;;0.10;0.10;;;7.50;99.90;;;;;;5027950;28;20170;-85
2021/12/01 01:56:02;;;;;;;0.10;0.10;;;7.50;99.90;;;;;;5027522;28;20196;-84
2021/12/01 01:58:28;;;;;;;0.10;0.10;;;7.50;99.90;;;;;;5023530;28;20198;-84
2021/12/01 02:01:06;;;;;;;0.10;0.10;;;7.50;99.90;;;;;;5023456;28;20178;-85
2021/12/01 02:03:35;;;;;;;1.40;0.30;;;7.40;99.90;;;;;;5023387;28;20179;-84
2021/12/01 02:06:01;;;;;;;0.10;0.10;;;7.40;99.90;;;;;;5048292;28;20202;-84
2021/12/01 02:08:30;;;;;;;0.10;0.10;;;7.40;99.90;;;;;;5028018;28;20196;-85
2021/12/01 02:11:01;;;;;;;0.20;0.20;;;7.40;99.90;;;;;;5045940;28;20177;-84
2021/12/01 02:13:27;;;;;;;0.17;0.13;;;7.40;99.90;;;;;;5033423;28;20260;-85
2021/12/01 02:15:54;;;;;;;0.00;0.00;;;7.40;99.90;;;;;;5030939;28;20174;-85
2021/12/01 02:18:20;;;;;;;0.20;0.20;;;7.30;99.90;;;;;;5034379;28;20193;-85
2021/12/01 02:21:12;;;;;;;0.10;0.10;;;7.40;99.90;;;;;;5034523;28;20180;-84
2021/12/01 02:23:44;;;;;;;0.60;0.10;;;7.40;99.90;;;;;;5040256;28;20181;-85
2021/12/01 02:26:11;;;;;;;0.10;0.10;;;7.30;99.90;;;;;;5018750;28;20171;-84
2021/12/01 02:28:38;;;;;;;0.10;0.10;;;7.30;99.90;;;;;;5033196;28;20194;-84
2021/12/01 02:31:04;;;;;;;0.23;0.23;;;7.30;99.90;;;;;;5020234;28;20178;-85
2021/12/01 02:33:30;;;;;;;0.10;0.10;;;7.30;99.90;;;;;;5050714;28;20273;-85
2021/12/01 02:35:55;;;;;;;0.10;0.10;;;7.30;99.90;;;;;;5025757;28;20170;-85
2021/12/01 02:38:22;;;;;;;0.10;0.10;;;7.20;99.90;;;;;;5033508;28;20258;-85
2021/12/01 02:40:48;;;;;;;0.10;0.10;;;7.30;99.90;;;;;;5034141;28;20179;-85
2021/12/01 02:43:14;;;;;;;0.10;0.10;;;7.20;99.90;;;;;;5033776;28;20174;-83
2021/12/01 02:45:40;;;;;;;0.10;0.10;;;7.20;99.90;;;;;;5036940;28;20233;-84
2021/12/01 02:48:10;;;;;;;0.37;0.20;;;7.20;99.90;;;;;;5036160;28;20235;-85
2021/12/01 02:50:35;;;;;;;0.10;0.10;;;7.10;99.90;;;;;;5033538;28;20205;-84
2021/12/01 02:53:01;;;;;;;0.10;0.10;;;7.00;99.90;;;;;;5031054;28;20183;-85
2021/12/01 02:55:30;;;;;;;0.10;0.10;;;7.00;99.90;;;;;;5030443;28;20236;-84
2021/12/01 02:57:59;;;;;;;0.43;0.10;;;6.90;99.90;;;;;;5024951;28;20273;-85
2021/12/01 03:00:25;;;;;;;0.03;0.03;;;6.90;99.90;;;;;;5038894;28;20193;-85
2021/12/01 03:02:52;;;;;;;0.10;0.10;;;6.80;99.90;;;;;;5033857;28;20543;-84
2021/12/01 03:05:20;;;;;;;0.10;0.10;;;6.80;99.90;;;;;;5026554;28;20213;-86
2021/12/01 03:07:46;;;;;;;0.10;0.10;;;6.70;99.90;;;;;;5036009;28;20172;-84
2021/12/01 03:10:12;;;;;;;0.00;0.00;;;6.70;99.90;;;;;;5034214;28;20181;-85
2021/12/01 03:12:40;;;;;;;0.10;0.10;;;6.70;99.90;;;;;;5030781;28;20174;-85
2021/12/01 03:15:08;;;;;;;0.10;0.10;;;6.70;99.90;;;;;;5025771;28;20270;-85
2021/12/01 03:17:34;;;;;;;0.00;0.00;;;6.70;99.90;;;;;;5031975;28;20188;-85
2021/12/01 03:20:00;;;;;;;0.10;0.10;;;6.60;99.90;;;;;;5026081;28;20662;-84
2021/12/01 03:22:27;;;;;;;0.40;0.10;;;6.60;99.90;;;;;;5036674;28;20705;-85
2021/12/01 03:24:53;;;;;;;0.10;0.10;;;6.60;99.90;;;;;;5029540;28;20212;-86
2021/12/01 03:27:20;;;;;;;0.10;0.10;;;6.60;99.90;;;;;;5041241;28;20185;-85
2021/12/01 03:29:50;;;;;;;0.00;0.00;;;6.60;99.90;;;;;;5035306;28;20198;-84
2021/12/01 03:32:16;;;;;;;0.20;0.20;;;6.60;99.90;;;;;;5037584;28;20170;-85
2021/12/01 03:34:43;;;;;;;0.20;0.20;;;6.50;99.90;;;;;;5034676;28;20185;-85
2021/12/01 03:37:10;;;;;;;0.20;0.20;;;6.50;99.90;;;;;;5046449;28;20189;-85
2021/12/01 03:39:36;;;;;;;0.37;0.27;;;6.60;99.90;;;;;;5036592;28;20204;-84
2021/12/01 03:42:02;;;;;;;0.10;0.10;;;6.60;99.90;;;;;;5028827;28;20182;-85
2021/12/01 03:44:28;;;;;;;0.17;0.10;;;6.60;99.90;;;;;;5054674;22;20193;-80
2021/12/01 03:46:53;;;;;;;0.20;0.20;;;6.60;99.90;;;;;;5017335;28;20187;-80
2021/12/01 03:49:20;;;;;;;0.00;0.00;;;6.60;99.90;;;;;;5011068;28;20219;-80
2021/12/01 03:51:46;;;;;;;0.00;0.00;;;6.60;99.90;;;;;;5012879;28;20186;-81
2021/12/01 03:54:12;;;;;;;0.10;0.10;;;6.50;99.90;;;;;;5013431;28;20178;-80
2021/12/01 03:56:37;;;;;;;0.20;0.20;;;6.60;99.90;;;;;;5019823;28;20203;-80
2021/12/01 03:59:04;;;;;;;0.37;0.10;;;6.50;99.90;;;;;;5005826;28;20557;-80
2021/12/01 04:01:30;;;;;;;0.10;0.10;;;6.50;99.90;;;;;;5025689;28;20183;-80
2021/12/01 04:03:58;;;;;;;0.10;0.10;;;6.60;99.90;;;;;;5003476;28;20207;-80
2021/12/01 04:06:24;;;;;;;0.27;0.27;;;6.60;99.90;;;;;;5011410;28;20205;-80
2021/12/01 04:08:50;;;;;;;0.17;0.17;;;6.60;99.90;;;;;;5006485;28;20198;-80
2021/12/01 04:11:15;;;;;;;0.10;0.10;;;6.60;99.90;;;;;;5010243;28;20179;-80
2021/12/01 04:13:41;;;;;;;0.17;0.17;;;6.60;99.90;;;;;;5023308;28;20213;-80
2021/12/01 04:16:07;;;;;;;0.40;0.40;;;6.60;99.90;;;;;;5005952;28;20198;-80
2021/12/01 04:18:32;;;;;;;0.10;0.10;;;6.60;99.90;;;;;;4997577;28;20188;-80
2021/12/01 04:20:58;;;;;;;0.07;0.07;;;6.60;99.90;;;;;;5013380;28;20178;-80
2021/12/01 04:23:23;;;;;;;0.10;0.10;;;6.60;99.90;;;;;;5002480;28;20194;-80
2021/12/01 04:25:49;;;;;;;0.10;0.10;;;6.70;99.90;;;;;;4991072;28;20727;-80
2021/12/01 04:28:15;;;;;;;0.20;0.20;;;6.70;99.90;;;;;;4993844;28;20172;-80
2021/12/01 04:30:41;;;;;;;0.10;0.10;;;6.70;99.90;;;;;;4999633;28;20632;-80
2021/12/01 04:33:06;;;;;;;0.10;0.10;;;6.70;99.90;;;;;;5016360;28;20175;-81
2021/12/01 04:35:33;;;;;;;0.13;0.13;;;6.70;99.90;;;;;;5000348;28;20196;-80
2021/12/01 04:37:59;;;;;;;0.10;0.10;;;6.70;99.90;;;;;;5011560;28;20206;-80
2021/12/01 04:40:25;;;;;;;0.20;0.20;;;6.70;99.90;;;;;;4992790;28;20191;-80
2021/12/01 04:42:51;;;;;;;0.10;0.10;;;6.80;99.90;;;;;;4998242;28;20186;-80
2021/12/01 04:45:19;;;;;;;0.57;0.10;;;6.80;99.90;;;;;;5002630;28;20226;-81
2021/12/01 04:47:48;;;;;;;0.47;0.47;;;6.70;99.90;;;;;;5000074;28;20191;-81
2021/12/01 04:50:16;;;;;;;0.10;0.10;;;6.80;99.90;;;;;;5004920;28;20699;-81
2021/12/01 04:52:43;;;;;;;0.10;0.10;;;6.80;99.90;;;;;;5002454;28;20205;-83
2021/12/01 04:55:10;;;;;;;0.10;0.10;;;6.80;99.90;;;;;;5000682;28;20202;-80
2021/12/01 04:57:41;;;;;;;0.20;0.20;;;6.80;99.90;;;;;;5000123;28;20183;-80
2021/12/01 05:00:10;;;;;;;0.07;0.07;;;6.80;99.90;;;;;;4995186;28;20211;-80
2021/12/01 05:02:36;;;;;;;0.33;0.30;;;6.80;99.90;;;;;;4990681;28;20203;-80
2021/12/01 05:05:01;;;;;;;0.10;0.10;;;6.80;99.90;;;;;;4995986;28;20674;-80
2021/12/01 05:07:27;;;;;;;0.10;0.10;;;6.80;99.90;;;;;;5007415;28;20226;-81
2021/12/01 05:09:54;;;;;;;0.20;0.20;;;6.80;99.90;;;;;;5016314;28;20318;-80
2021/12/01 05:12:19;;;;;;;0.10;0.10;;;6.80;99.90;;;;;;5000847;28;20199;-80
2021/12/01 05:14:45;;;;;;;0.20;0.20;;;6.80;99.90;;;;;;4995763;28;20226;-81
2021/12/01 05:17:10;;;;;;;0.10;0.10;;;6.90;99.90;;;;;;4991158;28;20556;-81
2021/12/01 05:19:36;;;;;;;0.17;0.17;;;6.90;99.90;;;;;;4992099;28;20238;-80
2021/12/01 05:22:02;;;;;;;0.20;0.20;;;6.90;99.90;;;;;;5000202;28;20265;-80
2021/12/01 05:24:28;;;;;;;0.10;0.10;;;6.90;99.90;;;;;;4996714;28;20214;-80
2021/12/01 05:26:54;;;;;;;0.73;0.40;;;6.90;99.90;;;;;;4999983;28;20183;-81
2021/12/01 05:29:21;;;;;;;0.40;0.40;;;6.90;99.90;;;;;;5009268;28;20563;-81
2021/12/01 05:31:48;;;;;;;0.10;0.10;;;6.90;99.90;;;;;;4997618;28;20175;-81
2021/12/01 05:34:13;;;;;;;1.60;0.20;;;6.90;99.90;;;;;;4995345;28;20212;-80
2021/12/01 05:36:39;;;;;;;0.10;0.10;;;6.90;99.90;;;;;;4995040;28;20559;-80
2021/12/01 05:39:05;;;;;;;0.10;0.10;;;6.90;99.90;;;;;;4995724;28;20252;-80
2021/12/01 05:41:30;;;;;;;0.00;0.00;;;7.00;99.90;;;;;;4999276;28;20579;-81
2021/12/01 05:43:56;;;;;;;0.53;0.50;;;7.00;99.90;;;;;;4995093;28;20208;-80
2021/12/01 05:46:21;;;;;;;0.10;0.10;;;7.00;99.90;;;;;;4993494;28;20203;-81
2021/12/01 05:48:51;;;;;;;0.10;0.10;;;7.00;99.90;;;;;;5010320;28;20173;-80
2021/12/01 05:51:18;;;;;;;0.10;0.10;;;6.90;99.90;;;;;;4994525;28;20269;-80
2021/12/01 05:53:43;;;;;;;0.10;0.10;;;6.90;99.90;;;;;;4993186;28;20235;-80
2021/12/01 05:56:09;;;;;;;0.10;0.10;;;6.90;99.90;;;;;;5000765;28;20199;-80
2021/12/01 05:58:34;;;;;;;0.27;0.27;;;6.90;99.90;;;;;;5011057;28;20641;-81
2021/12/01 06:01:00;;;;;;;0.10;0.10;;;6.90;99.90;;;;;;5019197;28;20237;-81
2021/12/01 06:03:26;;;;;;;0.10;0.10;;;6.90;99.90;;;;;;5006867;28;20175;-80
2021/12/01 06:05:51;;;;;;;0.10;0.10;;;6.90;99.90;;;;;;5022199;28;20217;-80
2021/12/01 06:08:17;;;;;;;0.30;0.23;;;6.90;99.90;;;;;;5001086;28;20183;-80
2021/12/01 06:10:43;;;;;;;0.10;0.10;;;6.90;99.90;;;;;;5016723;28;20187;-81
2021/12/01 06:13:10;;;;;;;0.53;0.37;;;6.90;99.90;;;;;;4993154;28;20181;-81
2021/12/01 06:15:36;;;;;;;0.40;0.40;;;6.90;99.90;;;;;;5032414;28;20206;-80
2021/12/01 06:18:02;;;;;;;0.23;0.23;;;6.90;99.90;;;;;;5010270;28;20258;-80
2021/12/01 06:20:28;;;;;;;0.93;0.93;;;6.90;99.90;;;;;;5005481;28;20192;-80
2021/12/01 06:22:54;;;;;;;0.37;0.33;;;6.90;99.90;;;;;;5017815;28;20194;-80
2021/12/01 06:25:19;;;;;;;0.27;0.10;;;6.90;99.90;;;;;;5007496;28;20689;-80
2021/12/01 06:27:45;;;;;;;0.10;0.10;;;6.90;99.90;;;;;;5004462;28;20187;-80
2021/12/01 06:30:12;;;;;;;0.27;0.27;;;6.90;99.90;;;;;;5006635;28;20220;-81
2021/12/01 06:32:38;;;;;;;0.20;0.20;;;6.90;99.90;;;;;;5007051;28;20181;-81
2021/12/01 06:35:04;;;;;;;1.20;0.63;;;6.90;99.90;;;;;;5004777;28;20230;-80
2021/12/01 06:37:29;;;;;;;0.30;0.30;;;6.90;99.90;;;;;;5024241;28;20853;-80
2021/12/01 06:39:55;;;;;;;0.20;0.20;;;6.90;99.90;;;;;;5007784;28;20194;-80
2021/12/01 06:42:21;;;;;;;0.30;0.30;;;6.90;99.90;;;;;;5003478;28;20217;-80
2021/12/01 06:44:47;;;;;;;0.30;0.30;;;7.00;99.90;;;;;;5014976;28;20311;-80
2021/12/01 06:47:13;;;;;;;0.20;0.20;;;7.00;99.90;;;;;;5003576;28;20175;-81
2021/12/01 06:49:38;;;;;;;0.30;0.30;;;7.00;99.90;;;;;;5010953;28;20576;-80
2021/12/01 06:52:04;;;;;;;0.30;0.30;;;6.90;99.90;;;;;;5014643;28;20186;-80
2021/12/01 06:54:30;;;;;;;0.10;0.10;;;7.00;99.90;;;;;;5016294;28;20198;-80
2021/12/01 06:56:55;;;;;;;0.13;0.13;;;7.00;99.90;;;;;;5019777;28;20203;-80
2021/12/01 06:59:21;;;;;;;0.20;0.20;;;7.00;99.90;;;;;;5018333;28;20562;-81
2021/12/01 07:01:46;;;;;;;0.13;0.13;;;7.00;99.90;;;;;;5011807;28;20183;-81
2021/12/01 07:04:14;;;;;;;0.50;0.27;;;7.00;99.90;;;;;;5007888;28;20210;-81
2021/12/01 07:06:39;;;;;;;0.10;0.10;;;7.00;99.90;;;;;;5005894;28;20182;-81
2021/12/01 07:09:05;;;;;;;0.47;0.20;;;7.00;99.90;;;;;;5016303;28;20179;-81
2021/12/01 07:11:31;;;;;;;0.57;0.20;;;7.00;99.90;;;;;;5002611;28;20661;-82
2021/12/01 07:13:56;;;;;;;0.10;0.10;;;7.10;99.90;;;;;;5007696;28;20195;-81
2021/12/01 07:16:22;;;;;;;0.10;0.10;;;7.10;99.90;;;;;;5000586;28;20227;-81
2021/12/01 07:18:48;;;;;;;0.10;0.10;;;7.10;99.90;;;;;;5015618;28;20246;-81
2021/12/01 07:21:14;;;;;;;0.50;0.40;;;7.10;99.90;;;;;;5001378;28;20718;-82
2021/12/01 07:23:39;;;;;;;0.00;0.00;;;7.10;99.90;;;;;;5003748;28;20182;-80
2021/12/01 07:26:05;;;;;;;0.10;0.10;;;7.10;99.90;;;;;;5000801;28;20297;-80
2021/12/01 07:28:31;;;;;;;0.57;0.30;;;7.10;99.90;;;;;;4996761;28;20275;-80
2021/12/01 07:30:57;;;;;;;0.00;0.00;;;7.00;99.90;;;;;;4994517;28;20182;-81
2021/12/01 07:33:24;;;;;;;0.37;0.17;;;7.00;99.90;;;;;;5007793;28;20180;-80
2021/12/01 07:35:49;;;;;;;0.10;0.10;;;7.10;99.90;;;;;;5008013;28;20681;-80
2021/12/01 07:38:15;;;;;;;0.10;0.10;;;7.10;99.90;;;;;;5001139;28;20269;-81
2021/12/01 07:40:41;;;;;;;0.10;0.10;;;7.10;99.90;;;;;;4996879;28;20202;-84
2021/12/01 07:43:06;;;;;;;0.10;0.10;;;7.10;99.90;;;;;;5015422;28;20187;-84
2021/12/01 07:45:32;;;;;;;0.13;0.10;;;7.10;99.90;;;;;;4998685;28;20215;-83
2021/12/01 07:48:01;;;;;;;0.57;0.40;;;7.10;99.90;;;;;;5006571;28;20625;-84
2021/12/01 07:50:27;;;;;;;0.10;0.10;;;7.10;99.90;;;;;;4998855;28;20274;-83
2021/12/01 07:52:52;;;;;;;0.33;0.33;;;7.20;99.90;;;;;;5018166;28;20265;-84
2021/12/01 07:55:18;;;;;;;0.30;0.30;;;7.20;99.90;;;;;;5002578;28;20296;-82
2021/12/01 07:57:45;;;;;;;0.10;0.10;;;7.20;99.90;;;;;;5000234;28;20186;-83
2021/12/01 08:00:11;;;;;;;0.10;0.10;;;7.20;99.90;;;;;;4996305;28;20645;-82
2021/12/01 08:02:37;;;;;;;0.17;0.17;;;7.20;99.90;;;;;;5002768;28;20231;-82
2021/12/01 08:05:04;;;;;;;0.77;0.57;;;7.20;99.90;;;;;;5015356;28;20216;-82
2021/12/01 08:07:33;;;;;;;0.13;0.13;;;7.30;99.90;;;;;;4995416;28;20203;-81
2021/12/01 08:09:59;;;;;;;0.10;0.10;;;7.30;99.90;;;;;;5002559;28;20731;-81
2021/12/01 08:12:24;;;;;;;0.10;0.10;;;7.30;99.90;;;;;;4998387;28;20264;-81
2021/12/01 08:14:50;;;;;;;0.20;0.20;;;7.30;99.90;;;;;;4997065;28;20254;-81
2021/12/01 08:17:15;;;;;;;0.27;0.17;;;7.30;99.90;;;;;;5000376;28;20215;-81
2021/12/01 08:19:41;;;;;;;0.10;0.10;;;7.30;99.90;;;;;;4997754;28;20188;-81
2021/12/01 08:22:09;;;;;;;0.20;0.20;;;7.30;99.90;;;;;;4999554;28;20203;-82
2021/12/01 08:24:34;;;;;;;0.10;0.10;;;7.40;99.90;;;;;;4985449;28;20243;-81
2021/12/01 08:27:00;;;;;;;0.10;0.10;;;7.40;99.90;;;;;;4997582;28;20253;-80
2021/12/01 08:29:25;;;;;;;0.20;0.20;;;7.30;99.90;;;;;;5001048;28;20280;-81
2021/12/01 08:31:51;;;;;;;0.00;0.00;;;7.30;99.90;;;;;;5000895;28;20571;-82
2021/12/01 08:34:16;;;;;;;0.10;0.10;;;7.30;99.90;;;;;;4992259;28;20191;-81
2021/12/01 08:36:42;;;;;;;0.27;0.27;;;7.30;99.90;;;;;;4997335;28;20183;-81
2021/12/01 08:39:08;;;;;;;0.10;0.10;;;7.40;99.90;;;;;;4994344;28;20523;-81
2021/12/01 08:41:33;;;;;;;0.10;0.10;;;7.40;99.90;;;;;;5000656;28;20190;-82
2021/12/01 08:43:59;;;;;;;0.07;0.07;;;7.30;99.90;;;;;;4993681;28;20688;-81
2021/12/01 08:46:25;;;;;;;0.10;0.10;;;7.30;99.90;;;;;;4997119;28;20808;-81
2021/12/01 08:48:50;;;;;;;0.10;0.10;;;7.40;99.90;;;;;;5014942;28;20180;-81
2021/12/01 08:51:16;;;;;;;0.20;0.20;;;7.40;99.90;;;;;;4998154;28;20714;-82
2021/12/01 08:53:42;;;;;;;0.10;0.10;;;7.40;99.90;;;;;;5019820;28;20226;-81
2021/12/01 08:56:08;;;;;;;0.10;0.10;;;7.50;99.90;;;;;;4992110;28;20196;-81
2021/12/01 08:58:34;;;;;;;0.10;0.10;;;7.50;99.90;;;;;;5000757;28;20251;-81
2021/12/01 09:01:00;;;;;;;0.03;0.03;;;7.50;99.90;;;;;;4991822;28;20644;-82
2021/12/01 09:03:26;;;;;;;0.10;0.10;;;7.50;99.90;;;;;;5024762;28;20306;-81
2021/12/01 09:05:53;;;;;;;0.10;0.10;;;7.50;99.90;;;;;;5003841;28;20244;-81
2021/12/01 09:08:20;;;;;;;0.20;0.20;;;7.50;99.90;;;;;;5001652;28;20214;-81
2021/12/01 09:10:48;;;;;;;0.83;0.20;;;7.60;99.90;;;;;;4999241;28;20179;-81
2021/12/01 09:13:15;;;;;;;0.17;0.17;;;7.50;99.90;;;;;;4999591;28;20191;-81
2021/12/01 09:15:42;;;;;;;0.10;0.10;;;7.60;99.90;;;;;;5001971;28;20210;-82
2021/12/01 09:18:07;;;;;;;0.20;0.17;;;7.60;99.90;;;;;;5001135;28;20183;-80
2021/12/01 09:20:33;;;;;;;0.10;0.10;;;7.70;99.90;;;;;;5005167;28;20202;-81
2021/12/01 09:23:00;;;;;;;0.10;0.10;;;7.70;99.90;;;;;;5013281;28;20178;-81
2021/12/01 09:25:26;;;;;;;0.10;0.10;;;7.70;99.90;;;;;;4995802;28;20579;-80
2021/12/01 09:27:52;;;;;;;0.00;0.00;;;7.70;99.90;;;;;;5018480;28;20182;-80
2021/12/01 09:30:18;;;;;;;0.10;0.10;;;7.70;99.90;;;;;;4997759;28;20183;-81
2021/12/01 09:32:45;;;;;;;0.10;0.10;;;7.80;99.90;;;;;;4995085;28;20181;-82
2021/12/01 09:35:12;;;;;;;0.00;0.00;;;7.80;99.90;;;;;;4994925;28;20208;-81
2021/12/01 09:37:38;;;;;;;0.10;0.10;;;7.90;99.90;;;;;;4998372;28;20181;-82
2021/12/01 09:40:12;;;;;;;0.17;0.17;;;7.90;99.90;;;;;;5017162;28;22072;-83
2021/12/01 09:42:40;;;;;;;0.17;0.17;;;7.90;99.90;;;;;;5002034;28;20183;-82
2021/12/01 09:45:05;;;;;;;0.10;0.10;;;7.90;99.90;;;;;;5014804;28;20234;-82
2021/12/01 09:47:31;;;;;;;0.10;0.10;;;8.00;99.90;;;;;;5013942;28;20180;-81
2021/12/01 09:49:57;;;;;;;0.10;0.10;;;8.00;99.90;;;;;;4992125;28;20264;-82
2021/12/01 09:52:22;;;;;;;0.10;0.10;;;8.00;99.90;;;;;;4998244;28;20172;-81
2021/12/01 09:54:49;;;;;;;0.10;0.10;;;8.00;99.90;;;;;;4995457;28;20621;-82
2021/12/01 09:57:14;;;;;;;0.10;0.10;;;8.00;99.90;;;;;;4997997;28;20183;-82
2021/12/01 09:59:41;;;;;;;0.10;0.10;;;8.00;99.90;;;;;;4999221;28;20332;-82
2021/12/01 10:02:07;;;;;;;0.10;0.10;;;8.00;99.90;;;;;;4996642;28;20187;-82
2021/12/01 10:04:33;;;;;;;0.00;0.00;;;8.10;99.90;;;;;;4994769;28;20241;-82
2021/12/01 10:07:19;;;;;;;0.10;0.10;;;8.10;99.90;;;;;;4999648;28;20674;-81
2021/12/01 10:09:57;;;;;;;0.10;0.10;;;8.10;99.90;;;;;;4999868;28;20590;-81
2021/12/01 10:12:43;;;;;;;0.10;0.10;;;8.10;99.90;;;;;;5015337;28;20217;-81
2021/12/01 10:15:09;;;;;;;0.10;0.10;;;8.20;99.90;;;;;;5006967;28;20217;-82
2021/12/01 10:17:35;;;;;;;0.10;0.10;;;8.20;99.90;;;;;;5008347;28;20245;-84
2021/12/01 10:20:18;;;;;;;0.10;0.10;;;8.20;99.90;;;;;;4996866;28;20196;-82
2021/12/01 10:23:06;;;;;;;0.10;0.10;;;8.20;99.90;;;;;;5016453;28;20201;-82
2021/12/01 10:25:33;;;;;;;0.10;0.10;;;8.20;99.90;;;;;;5012628;28;20236;-82
2021/12/01 10:27:59;;;;;;;0.10;0.10;;;8.20;99.90;;;;;;5003433;28;20258;-82
2021/12/01 10:30:54;;;;;;;0.10;0.10;;;8.30;99.90;;;;;;5000223;28;20388;-82
2021/12/01 10:33:19;;;;;;;0.10;0.10;;;8.30;99.90;;;;;;4980711;28;20197;-82
2021/12/01 10:35:45;;;;;;;0.10;0.10;;;8.30;99.90;;;;;;4999776;28;20751;-82
2021/12/01 10:38:13;;;;;;;0.10;0.10;;;8.30;99.90;;;;;;5001426;28;20237;-81
2021/12/01 10:40:40;;;;;;;0.20;0.20;;;8.40;99.90;;;;;;5002810;28;20198;-82
2021/12/01 10:43:10;;;;;;;0.00;0.00;;;8.40;99.90;;;;;;5001053;28;20195;-82
2021/12/01 10:45:45;;;;;;;0.10;0.10;;;8.40;99.90;;;;;;5002944;28;20284;-82
2021/12/01 10:48:25;;;;;;;0.10;0.10;;;8.50;99.90;;;;;;5003088;28;20186;-82
2021/12/01 10:50:51;;;;;;;0.00;0.00;;;8.50;99.90;;;;;;4998546;28;20205;-82
2021/12/01 10:53:21;;;;;;;0.30;0.30;;;8.50;99.90;;;;;;5016334;28;20660;-82
2021/12/01 10:55:52;;;;;;;0.00;0.00;;;8.50;99.90;;;;;;5006547;28;20224;-82
2021/12/01 10:58:19;;;;;;;0.10;0.10;;;8.50;99.90;;;;;;4982012;28;20570;-82
2021/12/01 11:00:50;;;;;;;0.10;0.10;;;8.50;99.90;;;;;;4982686;28;20232;-82
2021/12/01 11:03:21;;;;;;;0.10;0.10;;;8.50;99.90;;;;;;4999853;28;20184;-82
2021/12/01 11:05:49;;;;;;;0.10;0.10;;;8.60;99.90;;;;;;4994274;28;20676;-81
2021/12/01 11:08:21;;;;;;;0.30;0.30;;;8.60;99.90;;;;;;5000802;28;20550;-82
2021/12/01 11:10:54;;;;;;;0.00;0.00;;;8.70;99.90;;;;;;4998735;28;20193;-81
2021/12/01 11:13:21;;;;;;;0.07;0.07;;;8.70;99.90;;;;;;4996732;28;20198;-81
2021/12/01 11:15:58;;;;;;;0.13;0.13;;;8.70;99.90;;;;;;5014420;28;20207;-81
2021/12/01 11:18:30;;;;;;;0.10;0.10;;;8.70;99.90;;;;;;4999395;28;20194;-82
2021/12/01 11:20:59;;;;;;;0.10;0.10;;;8.80;99.90;;;;;;5011525;28;20204;-81
2021/12/01 11:23:31;;;;;;;0.00;0.00;;;8.80;99.90;;;;;;5002952;28;20196;-82
2021/12/01 11:26:04;;;;;;;0.27;0.13;;;8.80;99.90;;;;;;4996808;28;20211;-82
2021/12/01 11:28:32;;;;;;;0.10;0.10;;;8.80;99.90;;;;;;5016991;28;20290;-82
2021/12/01 11:31:01;;;;;;;0.00;0.00;;;8.90;99.90;;;;;;5002847;28;20179;-82
2021/12/01 11:33:29;;;;;;;0.10;0.10;;;8.90;99.90;;;;;;4996714;28;20638;-82
2021/12/01 11:36:07;;;;;;;0.10;0.10;;;8.90;99.90;;;;;;5017413;28;20285;-82
2021/12/01 11:38:33;;;;;;;0.10;0.10;;;8.90;99.90;;;;;;5012229;28;20202;-81
2021/12/01 11:41:04;;;;;;;0.00;0.00;;;8.90;99.90;;;;;;4998065;28;20183;-81
2021/12/01 11:43:31;;;;;;;0.07;0.07;;;8.90;99.90;;;;;;4994536;28;20187;-83
2021/12/01 11:45:57;;;;;;;0.30;0.30;;;8.90;99.90;;;;;;5013545;28;20291;-82
2021/12/01 11:48:33;;;;;;;0.10;0.10;;;8.90;99.90;;;;;;5001419;28;20552;-82
2021/12/01 11:51:06;;;;;;;0.10;0.10;;;8.90;99.90;;;;;;5000702;28;20183;-82
2021/12/01 11:53:36;;;;;;;0.03;0.03;;;8.90;99.90;;;;;;5003785;28;20249;-82
2021/12/01 11:56:14;;;;;;;0.00;0.00;;;8.90;99.90;;;;;;5000995;28;20569;-82
2021/12/01 11:58:53;;;;;;;0.00;0.00;;;8.80;99.90;;;;;;5001780;28;20192;-83
2021/12/01 12:01:22;;;;;;;0.10;0.10;;;8.90;99.90;;;;;;5000614;28;20194;-82
2021/12/01 12:03:53;;;;;;;0.10;0.10;;;8.90;99.90;;;;;;4995405;28;20189;-82
2021/12/01 12:06:21;;;;;;;0.10;0.10;;;8.90;99.90;;;;;;5017215;28;21620;-82
2021/12/01 12:09:08;;;;;;;0.10;0.10;;;8.90;99.90;;;;;;4998949;28;20671;-82
2021/12/01 12:11:44;;;;;;;0.00;0.00;;;8.90;99.90;;;;;;4995457;28;20181;-83
2021/12/01 12:14:33;;;;;;;0.10;0.10;;;8.90;99.90;;;;;;5005377;28;20196;-82
2021/12/01 12:17:12;;;;;;;0.10;0.10;;;8.90;99.90;;;;;;4994277;28;20226;-82
2021/12/01 12:19:53;;;;;;;0.10;0.10;;;8.90;99.90;;;;;;4992673;28;20194;-82
2021/12/01 12:23:00;;;;;;;0.10;0.10;;;8.90;99.90;;;;;;5003867;28;20270;-82
2021/12/01 12:25:53;;;;;;;0.10;0.10;;;9.00;99.90;;;;;;5017268;28;20228;-83
2021/12/01 12:28:27;;;;;;;0.87;0.50;;;8.90;99.90;;;;;;5025111;28;20190;-82
2021/12/01 12:30:55;;;;;;;0.00;0.00;;;8.90;99.90;;;;;;5006842;28;20291;-82
2021/12/01 12:33:48;;;;;;;0.10;0.10;;;9.00;99.90;;;;;;5002296;28;20184;-82
2021/12/01 12:36:13;;;;;;;0.10;0.10;;;9.00;99.90;;;;;;5000815;28;20295;-83
2021/12/01 12:39:08;;;;;;;0.10;0.10;;;9.00;99.90;;;;;;5001789;28;20218;-82
2021/12/01 12:41:57;;;;;;;0.10;0.10;;;9.00;99.90;;;;;;5018886;28;20186;-83
2021/12/01 12:44:40;;;;;;;0.10;0.10;;;9.00;99.90;;;;;;4996684;28;20265;-82
2021/12/01 12:47:38;;;;;;;0.10;0.10;;;9.00;99.90;;;;;;5000235;28;20564;-81
2021/12/01 12:50:11;;;;;;;0.00;0.00;;;9.00;99.90;;;;;;5006754;28;20420;-82
2021/12/01 12:52:39;;;;;;;0.10;0.10;;;9.00;99.90;;;;;;5003090;28;20202;-82
2021/12/01 12:55:09;;;;;;;0.00;0.00;;;9.00;99.90;;;;;;5004709;28;20214;-81
2021/12/01 12:57:56;;;;;;;0.10;0.10;;;9.00;99.90;;;;;;5002849;28;20202;-82
2021/12/01 13:00:47;;;;;;;0.10;0.10;;;9.00;99.90;;;;;;5015613;28;20194;-82
2021/12/01 13:03:19;;;;;;;0.10;0.10;;;9.10;99.90;;;;;;5010550;28;20266;-82
2021/12/01 13:05:45;;;;;;;0.10;0.10;;;9.10;99.90;;;;;;5000483;28;20222;-81
2021/12/01 13:08:28;;;;;;;0.10;0.10;;;9.10;99.90;;;;;;5003631;28;20262;-81